Wasilla Airport Wasilla US
ICAO: PAWS
IATA:
Category: Medium
Scheduled Services:

Elevation: 354 ft
TransAlt. 18000 ft.

Airport Communications:
ANCHORAGE APP/DEP:119.1
AWOS 3:135.25
CTAF:122.8

PAWS Zoom In..

If you have problems with the map follow the link
https://www.worldairports.se/pages/airport.php?
ICAO=PAWS

Runways:

(A) RW 03 length 3700 ft width 75 ft
---- / hdg 33

(B) RW 03L length 1690 ft width 60 ft
---- / hdg 33

(C) RW 21 length 3700 ft width 75 ft
---- / hdg 213

(D) RW 21R length 1690 ft width 60 ft
---- / hdg 213

Location; PAWS
Day. 23 / Time. 22.56 Zulu
* Altimeter: 29.46
* Temperature: -16° c. -3.2°f.
* Wind from: 000° Speed 00 kn.
Dewpoint: -18° c.
Visibility: 10 Statute Miles.
Clouds: Clear (automated report).

PAWS 232256Z AUTO 00000KT 10SM CLR M16/M18 A2946 RMK AO2 SNB34E44 SLP987 P0000 T11561178 FZRANO


Wind - Calm.

 
 
jpsmedia worldairports.se 2020   terms of use